createdAt,value
2023-02-03T00:05:56.233Z,26.62
2023-02-03T00:06:56.228Z,27.37
2023-02-03T00:07:56.191Z,26.35
2023-02-03T00:08:56.163Z,28.34
2023-02-03T00:09:56.125Z,27.01
2023-02-03T00:10:56.114Z,27.54
2023-02-03T00:11:56.081Z,27.39
2023-02-03T00:12:56.556Z,29.14
2023-02-03T00:13:56.052Z,28.55
2023-02-03T00:14:56.021Z,29.10
2023-02-03T00:15:56.012Z,27.87
2023-02-03T00:16:56.014Z,30.85
2023-02-03T00:17:55.992Z,28.14
2023-02-03T00:18:55.983Z,27.74
2023-02-03T00:19:55.946Z,27.41
2023-02-03T00:20:55.929Z,29.00
2023-02-03T00:21:55.921Z,28.67
2023-02-03T00:22:55.892Z,28.88
2023-02-03T00:23:55.874Z,26.30
2023-02-03T00:24:55.861Z,29.82
2023-02-03T00:25:55.840Z,26.89
2023-02-03T00:26:55.836Z,29.48
2023-02-03T00:27:55.877Z,27.21
2023-02-03T00:28:55.793Z,27.59
2023-02-03T00:29:55.743Z,31.76
2023-02-03T00:30:55.717Z,25.96
2023-02-03T00:31:55.779Z,28.66
2023-02-03T00:32:55.683Z,31.24
2023-02-03T00:33:55.632Z,29.88
2023-02-03T00:34:55.609Z,27.72
2023-02-03T00:35:55.581Z,28.51
2023-02-03T00:36:55.561Z,29.26
2023-02-03T00:37:55.533Z,27.71
2023-02-03T00:38:55.510Z,26.59
2023-02-03T00:39:55.501Z,31.01
2023-02-03T00:40:55.464Z,29.35
2023-02-03T00:41:55.457Z,28.81
2023-02-03T00:42:55.430Z,28.96
2023-02-03T00:43:55.404Z,28.25
2023-02-03T00:44:55.382Z,27.63
2023-02-03T00:45:55.392Z,32.67
2023-02-03T00:46:55.331Z,28.62
2023-02-03T00:47:55.301Z,27.63
2023-02-03T00:48:55.278Z,28.28
2023-02-03T00:49:55.259Z,29.61
2023-02-03T00:50:55.235Z,27.31
2023-02-03T00:51:55.202Z,27.69
2023-02-03T00:52:55.170Z,28.49
2023-02-03T00:53:55.167Z,28.68
2023-02-03T00:54:55.149Z,29.70
2023-02-03T00:55:55.125Z,27.99
2023-02-03T00:56:55.091Z,29.75
2023-02-03T00:57:55.084Z,28.29
2023-02-03T00:58:55.059Z,26.82
2023-02-03T00:59:55.048Z,31.77
2023-02-03T01:00:55.060Z,26.80
2023-02-03T01:01:55.020Z,25.00
2023-02-03T01:02:54.965Z,28.89
2023-02-03T01:03:54.941Z,30.65
2023-02-03T01:04:54.932Z,28.98
2023-02-03T01:05:54.905Z,26.28
2023-02-03T01:06:54.879Z,28.21
2023-02-03T01:07:54.849Z,29.35
2023-02-03T01:08:54.825Z,26.13
2023-02-03T01:09:54.837Z,26.77
2023-02-03T01:10:54.787Z,28.43
2023-02-03T01:11:54.760Z,30.20
2023-02-03T01:12:54.745Z,28.70
2023-02-03T01:13:54.744Z,32.74
2023-02-03T01:14:54.708Z,27.16
2023-02-03T01:15:54.677Z,28.15
2023-02-03T01:16:54.734Z,31.41
2023-02-03T01:17:54.633Z,30.55
2023-02-03T01:18:54.610Z,30.37
2023-02-03T01:19:54.596Z,30.52
2023-02-03T01:20:54.586Z,29.27
2023-02-03T01:21:54.552Z,28.55
2023-02-03T01:22:54.526Z,29.71
2023-02-03T01:23:54.502Z,27.69
2023-02-03T01:24:54.471Z,32.43
2023-02-03T01:25:54.463Z,27.35
2023-02-03T01:26:54.445Z,27.91
2023-02-03T01:27:54.441Z,26.01
2023-02-03T01:28:54.385Z,28.13
2023-02-03T01:29:54.374Z,29.00
2023-02-03T01:30:54.565Z,28.27
2023-02-03T01:31:54.417Z,29.57
2023-02-03T01:32:54.301Z,28.48
2023-02-03T01:33:54.300Z,29.44
2023-02-03T01:34:54.247Z,28.35
2023-02-03T01:35:54.215Z,32.23
2023-02-03T01:36:54.206Z,27.35
2023-02-03T01:37:54.184Z,26.70
2023-02-03T01:38:54.164Z,30.17
2023-02-03T01:39:54.140Z,32.24
2023-02-03T01:40:54.118Z,30.01
2023-02-03T01:41:54.092Z,27.93
2023-02-03T01:42:54.076Z,28.31
2023-02-03T01:43:54.058Z,27.60
2023-02-03T01:44:54.034Z,29.49
2023-02-03T01:45:54.076Z,30.80
2023-02-03T01:46:53.996Z,27.96
2023-02-03T01:47:53.976Z,29.83
2023-02-03T01:48:53.958Z,31.02
2023-02-03T01:49:53.942Z,28.26
2023-02-03T01:50:53.921Z,27.37
2023-02-03T01:51:53.913Z,27.77
2023-02-03T01:52:53.898Z,27.38
2023-02-03T01:53:53.884Z,27.72
2023-02-03T01:54:53.862Z,30.18
2023-02-03T01:55:53.859Z,28.52
2023-02-03T01:56:53.821Z,27.37
2023-02-03T01:57:53.809Z,27.33
2023-02-03T01:58:53.800Z,27.48
2023-02-03T01:59:53.781Z,26.45
2023-02-03T02:00:53.757Z,30.79
2023-02-03T02:01:53.750Z,27.68
2023-02-03T02:02:53.829Z,29.02
2023-02-03T02:03:53.706Z,26.25
2023-02-03T02:04:53.689Z,27.65
2023-02-03T02:05:53.676Z,29.69
2023-02-03T02:06:53.659Z,28.58
2023-02-03T02:07:53.627Z,30.19
2023-02-03T02:08:53.608Z,29.30
2023-02-03T02:09:53.589Z,30.48
2023-02-03T02:10:53.571Z,28.07
2023-02-03T02:11:53.569Z,28.35
2023-02-03T02:12:53.511Z,30.32
2023-02-03T02:13:53.514Z,31.16
2023-02-03T02:14:53.469Z,29.99
2023-02-03T02:15:53.492Z,27.49
2023-02-03T02:16:53.453Z,27.85
2023-02-03T02:17:53.410Z,26.39
2023-02-03T02:18:53.391Z,27.28
2023-02-03T04:20:50.067Z,33.50
2023-02-03T04:21:50.062Z,32.21
2023-02-03T04:22:50.043Z,30.32
2023-02-03T04:23:49.991Z,30.07
2023-02-03T04:24:49.963Z,29.01
2023-02-03T04:25:49.935Z,32.67
2023-02-03T04:26:49.911Z,32.41
2023-02-03T04:27:49.924Z,31.73
2023-02-03T04:28:49.865Z,31.57
2023-02-03T04:29:49.838Z,33.91
2023-02-03T04:30:49.865Z,33.17
2023-02-03T04:31:49.876Z,33.29
2023-02-03T04:32:49.759Z,34.24
2023-02-03T04:33:49.741Z,31.09
2023-02-03T04:34:49.727Z,32.40
2023-02-03T04:35:49.715Z,33.76
2023-02-03T04:36:49.676Z,33.34
2023-02-03T04:37:49.638Z,36.64
2023-02-03T04:38:49.607Z,33.51
2023-02-03T04:39:49.571Z,31.60
2023-02-03T04:40:49.542Z,32.00
2023-02-03T04:41:49.581Z,32.95
2023-02-03T04:42:49.508Z,32.97
2023-02-03T04:43:49.484Z,35.06
2023-02-03T04:44:49.473Z,33.11
2023-02-03T04:45:49.547Z,34.09
2023-02-03T04:46:49.446Z,31.79
2023-02-03T04:47:49.440Z,32.91
2023-02-03T04:48:49.411Z,32.83
2023-02-03T04:49:49.401Z,31.77
2023-02-03T04:50:49.375Z,32.86
2023-02-03T04:51:49.342Z,32.03
2023-02-03T04:52:49.328Z,34.54
2023-02-03T04:53:49.284Z,34.04
2023-02-03T04:54:49.263Z,36.18
2023-02-03T04:55:49.251Z,35.79
2023-02-03T04:56:49.191Z,35.51
2023-02-03T04:57:49.163Z,36.47
2023-02-03T04:58:49.148Z,35.33
2023-02-03T04:59:49.150Z,32.11
2023-02-03T05:00:49.138Z,32.56
2023-02-03T05:01:49.135Z,35.74
2023-02-03T05:02:49.114Z,32.12
2023-02-03T05:03:49.074Z,30.93
2023-02-03T05:04:49.060Z,34.72
2023-02-03T05:05:49.025Z,36.17
2023-02-03T05:06:49.005Z,33.30
2023-02-03T05:07:48.978Z,34.14
2023-02-03T05:08:48.957Z,33.19
2023-02-03T05:09:48.948Z,33.10
2023-02-03T07:12:45.181Z,77.77
2023-02-03T07:15:45.064Z,75.17
2023-02-03T07:16:44.971Z,76.84
2023-02-03T07:17:44.917Z,71.59
2023-02-03T07:18:47.941Z,66.65
2023-02-03T07:19:46.118Z,72.73
2023-02-03T07:20:44.748Z,78.69
2023-02-03T07:21:44.632Z,74.57
2023-02-03T07:22:44.558Z,75.35
2023-02-03T07:23:45.136Z,71.58
2023-02-03T07:24:44.389Z,62.03
2023-02-03T07:25:44.303Z,67.95
2023-02-03T07:26:44.209Z,68.44
2023-02-03T07:27:44.139Z,72.33
2023-02-03T07:28:44.061Z,74.45
2023-02-03T07:29:43.955Z,77.00
2023-02-03T07:30:43.911Z,76.77
2023-02-03T07:31:43.891Z,78.90
2023-02-03T07:32:43.686Z,77.83
2023-02-03T07:33:43.670Z,77.65
2023-02-03T07:34:43.513Z,81.84
2023-02-03T07:35:43.418Z,88.79
2023-02-03T09:31:36.019Z,157.43
2023-02-03T09:32:35.867Z,158.94
2023-02-03T09:33:35.788Z,161.98
2023-02-03T09:34:36.263Z,162.10
2023-02-03T09:35:35.725Z,162.66
2023-02-03T09:37:35.639Z,168.15
2023-02-03T09:38:35.675Z,169.99
2023-02-03T09:39:35.553Z,176.40
2023-02-03T09:40:35.515Z,181.02
2023-02-03T09:41:35.388Z,180.89
2023-02-03T09:42:35.283Z,182.29
2023-02-03T09:43:35.228Z,183.76
2023-02-03T09:44:35.173Z,188.68
2023-02-03T09:45:35.142Z,185.93
2023-02-03T09:46:35.180Z,187.00
2023-02-03T09:47:34.995Z,191.00
2023-02-03T09:48:35.765Z,192.37
2023-02-03T09:49:34.896Z,193.12
2023-02-03T09:50:34.813Z,192.69
2023-02-03T09:51:34.709Z,191.54
2023-02-03T09:52:35.193Z,193.64
2023-02-03T09:54:35.200Z,191.52
2023-02-03T09:55:34.406Z,189.21
2023-02-03T09:56:34.340Z,187.49
2023-02-03T09:57:34.303Z,188.22
2023-02-03T09:58:34.282Z,188.40
2023-02-03T10:00:34.203Z,187.34
2023-02-03T10:01:34.234Z,190.47
2023-02-03T10:02:34.184Z,191.22
2023-02-03T10:03:34.086Z,188.49
2023-02-03T10:04:34.036Z,190.88
2023-02-03T10:05:34.003Z,193.94
2023-02-03T10:06:33.970Z,191.06
2023-02-03T10:08:33.906Z,197.09
2023-02-03T10:09:33.850Z,198.58
2023-02-03T10:10:33.821Z,199.64
2023-02-03T10:11:34.781Z,203.30
2023-02-03T10:12:33.753Z,203.08
2023-02-03T10:13:33.709Z,205.77
2023-02-03T10:14:33.674Z,206.46
2023-02-03T10:15:33.651Z,208.47
2023-02-03T10:16:33.638Z,209.01
2023-02-03T10:17:33.603Z,208.81
2023-02-03T10:19:33.486Z,206.64
2023-02-03T10:20:33.453Z,202.29
2023-02-03T10:21:33.444Z,199.74
2023-02-03T10:22:33.393Z,196.63
2023-02-03T10:24:34.289Z,194.09
2023-02-03T12:26:25.989Z,104.33
2023-02-03T12:27:25.961Z,99.37
2023-02-03T12:28:33.407Z,102.14
2023-02-03T12:30:25.891Z,102.74
2023-02-03T12:31:25.734Z,99.46
2023-02-03T12:32:25.565Z,96.89
2023-02-03T12:33:25.497Z,96.72
2023-02-03T12:34:25.396Z,97.67
2023-02-03T12:35:25.323Z,94.73
2023-02-03T12:36:25.224Z,90.83
2023-02-03T12:37:25.160Z,92.02
2023-02-03T12:38:25.126Z,88.49
2023-02-03T12:39:25.104Z,86.95
2023-02-03T12:40:25.061Z,86.56
2023-02-03T12:41:25.039Z,83.57
2023-02-03T12:42:25.003Z,85.45
2023-02-03T12:43:24.949Z,81.17
2023-02-03T12:44:24.891Z,81.02
2023-02-03T12:45:24.888Z,76.91
2023-02-03T12:46:24.848Z,81.19
2023-02-03T12:47:24.803Z,77.13
2023-02-03T12:48:24.725Z,76.92
2023-02-03T12:49:24.652Z,78.41
2023-02-03T12:50:24.615Z,79.08
2023-02-03T12:51:24.536Z,76.93
2023-02-03T12:52:24.464Z,77.12
2023-02-03T12:53:24.397Z,79.17
2023-02-03T12:54:24.308Z,75.47
2023-02-03T12:55:24.254Z,75.72
2023-02-03T12:56:24.169Z,75.79
2023-02-03T12:57:24.099Z,75.12
2023-02-03T12:58:24.023Z,78.18
2023-02-03T12:59:23.947Z,78.69
2023-02-03T13:00:23.878Z,73.27
2023-02-03T13:01:23.892Z,77.03
2023-02-03T13:02:23.773Z,76.67
2023-02-03T13:03:23.639Z,76.13
2023-02-03T13:04:23.568Z,74.41
2023-02-03T13:05:23.486Z,75.41
2023-02-03T13:06:23.420Z,76.18
2023-02-03T14:08:19.132Z,68.05
2023-02-03T14:09:19.058Z,67.26
2023-02-03T14:10:18.984Z,67.88
2023-02-03T14:11:18.917Z,65.88
2023-02-03T14:12:18.860Z,66.13
2023-02-03T14:13:18.834Z,67.56
2023-02-03T14:14:18.732Z,63.33
2023-02-03T14:15:18.679Z,65.86
2023-02-03T14:16:18.662Z,66.47
2023-02-03T14:17:18.567Z,63.33
2023-02-03T14:18:18.517Z,63.22
2023-02-03T14:19:18.464Z,63.41
2023-02-03T14:20:18.490Z,65.51
2023-02-03T14:21:18.353Z,64.88
2023-02-03T14:22:18.365Z,66.02
2023-02-03T14:23:18.249Z,63.57
2023-02-03T14:24:18.197Z,65.84
2023-02-03T14:25:18.133Z,65.14
2023-02-03T14:26:18.077Z,64.64
2023-02-03T14:27:18.035Z,64.60
2023-02-03T14:28:18.033Z,64.87
2023-02-03T14:29:17.916Z,63.39
2023-02-03T14:30:17.906Z,63.17
2023-02-03T14:31:17.943Z,60.93
2023-02-03T14:32:17.776Z,63.65
2023-02-03T14:33:17.716Z,61.93
2023-02-03T14:34:17.657Z,61.46
2023-02-03T14:35:17.613Z,65.20
2023-02-03T14:36:17.557Z,62.54
2023-02-03T14:37:17.502Z,63.66
2023-02-03T14:38:17.460Z,61.78
2023-02-03T14:39:17.398Z,62.33
2023-02-03T14:40:17.353Z,63.05
2023-02-03T14:41:17.304Z,60.67
2023-02-03T14:42:17.242Z,61.38
2023-02-03T14:43:17.225Z,60.95
2023-02-03T14:44:17.143Z,63.15
2023-02-03T14:45:17.099Z,61.83
2023-02-03T14:46:17.134Z,61.04
2023-02-03T14:47:16.992Z,60.70
2023-02-03T14:48:16.935Z,62.60
2023-02-03T14:49:16.893Z,57.57
2023-02-03T14:50:16.857Z,62.81
2023-02-03T14:51:16.793Z,61.19
2023-02-03T14:52:16.752Z,60.40
2023-02-03T14:53:16.700Z,57.40
2023-02-03T14:54:16.646Z,58.85
2023-02-03T14:55:16.609Z,60.02
2023-02-03T14:56:16.570Z,58.23
2023-02-03T14:57:16.541Z,58.79
2023-02-03T14:58:16.479Z,57.67
2023-02-03T14:59:16.441Z,59.79
2023-02-03T15:00:16.397Z,58.00
2023-02-03T15:01:16.478Z,60.61
2023-02-03T15:02:16.312Z,54.53
2023-02-03T15:03:16.260Z,61.14
2023-02-03T15:04:16.215Z,57.41
2023-02-03T15:05:16.203Z,59.77
2023-02-03T15:06:16.124Z,58.08
2023-02-03T15:07:16.093Z,55.95
2023-02-03T15:08:16.041Z,61.86
2023-02-03T15:09:16.000Z,55.59
2023-02-03T15:10:15.969Z,59.17
2023-02-03T15:11:16.863Z,57.93
2023-02-03T15:12:15.967Z,56.20
2023-02-03T15:13:15.824Z,58.10
2023-02-03T15:14:17.635Z,55.30
2023-02-03T15:15:15.691Z,56.79
2023-02-03T15:16:15.640Z,56.84
2023-02-03T15:17:15.545Z,57.81
2023-02-03T15:18:15.449Z,57.15
2023-02-03T15:19:15.368Z,57.18
2023-02-03T15:20:15.268Z,54.10
2023-02-03T15:21:15.211Z,56.92
2023-02-03T15:22:15.108Z,55.13
2023-02-03T15:23:15.037Z,56.65
2023-02-03T15:24:14.956Z,52.67
2023-02-03T15:25:14.889Z,55.20
2023-02-03T15:26:14.794Z,55.25
2023-02-03T15:27:14.715Z,57.10
2023-02-03T15:28:14.659Z,57.19
2023-02-03T15:29:14.563Z,55.97
2023-02-03T15:30:14.480Z,56.29
2023-02-03T15:31:14.482Z,55.54
2023-02-03T15:32:14.306Z,55.48
2023-02-03T15:33:14.229Z,53.54
2023-02-03T15:34:14.160Z,53.96
2023-02-03T15:35:14.096Z,53.08
2023-02-03T15:36:14.011Z,54.11
2023-02-03T15:37:13.921Z,55.15
2023-02-03T15:38:13.826Z,53.54
2023-02-03T15:39:14.387Z,53.01
2023-02-03T15:40:13.663Z,56.74
2023-02-03T15:41:13.579Z,50.55
2023-02-03T15:42:13.497Z,54.85
2023-02-03T15:43:13.418Z,48.81
2023-02-03T17:53:44.901Z,25.00
2023-02-03T22:53:48.114Z,28.88
2023-02-03T22:54:48.142Z,27.10
2023-02-03T22:56:48.183Z,27.96
2023-02-03T22:57:48.215Z,28.80
2023-02-03T22:58:48.231Z,28.67
2023-02-03T22:59:48.277Z,29.10
2023-02-03T23:00:48.293Z,29.04
2023-02-03T23:01:48.311Z,27.12
2023-02-03T23:02:48.440Z,29.81
2023-02-03T23:03:48.360Z,27.92
2023-02-03T23:04:48.457Z,30.52
2023-02-03T23:05:48.492Z,29.18
2023-02-03T23:06:48.446Z,28.22
2023-02-03T23:07:48.475Z,29.18
2023-02-03T23:08:48.499Z,26.43
2023-02-03T23:09:48.525Z,27.63
2023-02-03T23:10:49.276Z,28.04
2023-02-03T23:11:48.574Z,27.97
2023-02-03T23:12:48.612Z,31.87
2023-02-03T23:13:48.635Z,28.01
2023-02-03T23:14:48.672Z,26.46
2023-02-03T23:15:48.728Z,28.20
2023-02-03T23:16:48.721Z,30.07
2023-02-03T23:17:48.744Z,28.82
2023-02-03T23:18:48.776Z,26.84
2023-02-03T23:19:48.814Z,28.13
2023-02-03T23:20:48.817Z,29.44
2023-02-03T23:21:48.838Z,28.12
2023-02-03T23:22:48.873Z,27.12
2023-02-03T23:23:48.889Z,28.97
2023-02-03T23:24:49.071Z,28.07
2023-02-03T23:25:48.926Z,25.28
2023-02-03T23:26:48.948Z,25.73
2023-02-03T23:27:49.002Z,31.08
2023-02-03T23:28:48.995Z,27.51
2023-02-03T23:29:49.024Z,28.91
2023-02-03T23:30:49.105Z,29.80
2023-02-03T23:31:49.216Z,29.38
2023-02-03T23:32:49.107Z,28.16
2023-02-03T23:33:49.132Z,29.42
2023-02-03T23:34:49.156Z,32.17
2023-02-03T23:35:49.198Z,29.80
2023-02-03T23:36:49.205Z,28.58
2023-02-03T23:37:49.233Z,30.02
2023-02-03T23:38:49.246Z,25.98
2023-02-03T23:39:49.263Z,29.88
2023-02-03T23:40:49.287Z,28.96
2023-02-03T23:41:49.295Z,27.60
2023-02-03T23:42:49.312Z,29.03
2023-02-03T23:43:49.337Z,27.35
2023-02-03T23:44:49.367Z,26.70
2023-02-03T23:45:49.397Z,29.70
2023-02-03T23:46:49.421Z,29.53
2023-02-03T23:47:49.454Z,27.33
2023-02-03T23:48:49.483Z,28.45
2023-02-03T23:49:49.511Z,29.99
2023-02-03T23:50:49.542Z,29.74
2023-02-03T23:51:49.574Z,27.99
2023-02-03T23:52:49.602Z,27.41
2023-02-03T23:53:49.630Z,30.09
2023-02-03T23:54:49.835Z,29.82
2023-02-03T23:55:49.722Z,29.97
2023-02-03T23:56:49.728Z,28.81
2023-02-03T23:57:49.754Z,29.93
2023-02-03T23:58:49.790Z,26.79
2023-02-03T23:59:49.836Z,25.00
